createdAt,value
2022-11-27T13:25:29.448Z,13.80
2022-11-27T13:27:58.040Z,14.00
2022-11-27T13:30:27.906Z,14.20
2022-11-27T13:33:01.782Z,14.30
2022-11-27T13:35:39.013Z,14.00
2022-11-27T13:38:19.955Z,14.07
2022-11-27T13:40:52.678Z,13.50
2022-11-27T13:43:31.320Z,14.20
2022-11-27T13:46:07.087Z,13.50
2022-11-27T13:48:37.499Z,13.90
2022-11-27T13:51:07.082Z,13.90
2022-11-27T13:53:41.220Z,14.17
2022-11-27T13:56:09.459Z,13.33
2022-11-27T13:58:39.294Z,13.20
2022-11-27T14:01:21.690Z,13.33
2022-11-27T14:03:51.708Z,13.37
2022-11-27T14:06:25.335Z,13.40
2022-11-27T14:08:59.359Z,12.97
2022-11-27T14:11:43.859Z,12.90
2022-11-27T14:14:26.587Z,13.10
2022-11-27T14:17:08.950Z,12.50
2022-11-27T14:19:45.291Z,12.67
2022-11-27T14:22:30.207Z,12.50
2022-11-27T14:24:57.295Z,12.73
2022-11-27T14:27:28.221Z,12.50
2022-11-27T14:29:55.170Z,12.23
2022-11-27T14:32:21.975Z,11.97
2022-11-27T14:34:49.136Z,11.70
2022-11-27T14:37:28.391Z,11.40
2022-11-27T14:39:55.798Z,11.80
2022-11-27T14:42:30.138Z,11.90
2022-11-27T14:45:12.847Z,12.37
2022-11-27T14:47:54.708Z,11.80
2022-11-27T14:50:22.934Z,11.63
2022-11-27T14:52:55.064Z,11.60
2022-11-27T14:55:22.548Z,11.73
2022-11-27T14:57:50.740Z,11.97
2022-11-27T15:00:20.987Z,11.60
2022-11-27T15:02:51.624Z,10.80
2022-11-27T15:05:28.445Z,11.00
2022-11-27T15:07:58.153Z,11.30
2022-11-27T15:10:34.901Z,11.50
2022-11-27T15:13:03.752Z,12.00
2022-11-27T15:15:36.444Z,12.07
2022-11-27T15:18:06.779Z,11.90
2022-11-27T15:20:42.797Z,11.80
2022-11-27T15:23:24.813Z,11.90
2022-11-27T15:26:06.378Z,12.33
2022-11-27T15:28:54.420Z,12.90
2022-11-27T15:31:37.760Z,12.50
2022-11-27T15:34:16.535Z,12.53
2022-11-27T15:37:03.805Z,11.90
2022-11-27T15:39:39.019Z,11.90
2022-11-27T15:42:10.527Z,12.20
2022-11-27T15:44:38.659Z,12.20
2022-11-27T15:47:06.790Z,12.13
2022-11-27T15:49:33.564Z,12.50
2022-11-27T15:52:00.468Z,12.40
2022-11-27T15:54:27.334Z,12.53
2022-11-27T15:56:54.082Z,12.33
2022-11-27T15:59:21.052Z,12.20
2022-11-27T16:01:49.804Z,12.30
2022-11-27T16:04:17.178Z,13.07
2022-11-27T16:06:43.989Z,12.73
2022-11-27T16:09:11.463Z,12.50
2022-11-27T16:11:38.366Z,12.70
2022-11-27T16:14:05.335Z,12.83
2022-11-27T16:16:32.267Z,12.70
2022-11-27T16:19:00.925Z,12.97
2022-11-27T16:21:30.072Z,12.60
2022-11-27T16:24:05.429Z,14.43
2022-11-27T16:26:32.563Z,12.60
2022-11-27T16:28:59.836Z,12.90
2022-11-27T16:31:27.448Z,12.60
2022-11-27T16:33:54.420Z,12.73
2022-11-27T16:36:22.824Z,13.07
2022-11-27T16:38:52.555Z,12.80
2022-11-27T16:41:20.139Z,12.57
2022-11-27T16:43:50.416Z,13.80
2022-11-27T16:46:20.963Z,13.50
2022-11-27T16:48:49.350Z,13.10
2022-11-27T16:51:21.996Z,13.97
2022-11-27T16:53:51.041Z,13.30
2022-11-27T16:56:20.912Z,13.87
2022-11-27T16:58:48.578Z,13.00
2022-11-27T17:01:22.202Z,12.60
2022-11-27T17:03:49.513Z,13.27
2022-11-27T17:06:36.232Z,13.40
2022-11-27T17:09:05.110Z,13.90
2022-11-27T17:11:34.432Z,12.77
2022-11-27T17:14:05.411Z,13.03
2022-11-27T17:16:32.847Z,13.30
2022-11-27T17:18:59.636Z,13.53
2022-11-27T17:21:29.427Z,13.80
2022-11-27T17:24:01.039Z,14.00
2022-11-27T17:26:30.292Z,13.80
2022-11-27T17:28:57.401Z,13.30
2022-11-27T17:31:32.705Z,13.13
2022-11-27T17:34:00.103Z,13.83
2022-11-27T17:36:28.112Z,13.50
2022-11-27T17:38:56.510Z,13.63
2022-11-27T17:41:24.159Z,13.20
2022-11-27T17:43:51.284Z,13.50
2022-11-27T17:46:21.737Z,14.17
2022-11-27T17:48:49.340Z,13.80
2022-11-27T17:51:16.603Z,13.50
2022-11-27T17:53:43.277Z,13.80
2022-11-27T17:56:13.021Z,12.93
2022-11-27T17:58:40.027Z,13.77
2022-11-27T18:02:03.273Z,14.13
2022-11-27T18:04:31.142Z,14.17
2022-11-27T18:06:58.526Z,13.47
2022-11-27T18:09:25.271Z,13.83
2022-11-27T18:11:52.312Z,13.87
2022-11-27T18:14:19.042Z,13.23
2022-11-27T18:16:46.022Z,13.10
2022-11-27T18:19:13.004Z,13.17
2022-11-27T18:21:40.143Z,12.87
2022-11-27T18:24:24.696Z,13.27
2022-11-27T18:27:08.152Z,13.10
2022-11-27T18:29:37.845Z,13.70
2022-11-27T18:32:05.045Z,13.70
2022-11-27T18:34:32.120Z,13.60
2022-11-27T18:36:59.713Z,13.60
2022-11-27T18:39:27.176Z,13.47
2022-11-27T18:41:54.042Z,13.27
2022-11-27T18:44:20.814Z,13.20
2022-11-27T18:46:47.650Z,12.50
2022-11-27T18:49:14.396Z,12.53
2022-11-27T18:51:41.182Z,12.90
2022-11-27T18:54:07.898Z,13.13
2022-11-27T18:56:34.658Z,12.87
2022-11-27T18:59:03.324Z,12.93
2022-11-27T19:01:36.749Z,12.50
2022-11-27T19:04:07.350Z,13.03
2022-11-27T19:06:35.856Z,13.10
2022-11-27T19:09:04.349Z,13.20
2022-11-27T19:11:32.648Z,12.83
2022-11-27T19:13:59.858Z,12.77
2022-11-27T19:16:31.132Z,13.70
2022-11-27T19:18:58.763Z,12.93
2022-11-27T19:21:28.916Z,13.00
2022-11-27T19:23:57.651Z,12.80
2022-11-27T19:26:27.469Z,13.73
2022-11-27T19:29:00.267Z,12.63
2022-11-27T19:31:27.795Z,13.40
2022-11-27T19:33:58.790Z,13.03
2022-11-27T19:36:26.209Z,13.40
2022-11-27T19:38:58.710Z,13.20
2022-11-27T19:41:26.159Z,13.67
2022-11-27T19:43:53.246Z,13.10
2022-11-27T19:46:38.907Z,12.80
2022-11-27T19:49:13.026Z,12.90
2022-11-27T19:51:39.881Z,13.47
2022-11-27T19:54:10.327Z,12.50
2022-11-27T19:56:39.624Z,12.57
2022-11-27T19:59:06.823Z,12.30
2022-11-27T20:01:33.828Z,13.37
2022-11-27T20:04:02.092Z,13.57
2022-11-27T20:06:28.950Z,13.23
2022-11-27T20:09:00.834Z,13.20
2022-11-27T20:11:34.103Z,13.00
2022-11-27T20:14:02.281Z,13.60
2022-11-27T20:16:29.181Z,13.30
2022-11-27T20:18:56.352Z,13.20
2022-11-27T20:21:26.746Z,12.67
2022-11-27T20:23:54.697Z,12.97
2022-11-27T20:26:24.742Z,13.07
2022-11-27T20:28:53.173Z,12.57
2022-11-27T20:31:31.984Z,13.17
2022-11-27T20:34:01.836Z,13.77
2022-11-27T20:36:31.300Z,13.40
2022-11-27T20:38:59.663Z,13.67
2022-11-27T20:41:26.882Z,14.10
2022-11-27T20:43:56.048Z,13.83
2022-11-27T20:46:23.249Z,12.97
2022-11-27T20:48:51.665Z,14.30
2022-11-27T20:51:21.843Z,14.37
2022-11-27T20:53:49.821Z,13.80
2022-11-27T20:56:18.524Z,12.90
2022-11-27T20:58:46.952Z,13.80
2022-11-27T21:01:14.900Z,13.80
2022-11-27T21:03:41.755Z,12.70
2022-11-27T21:06:08.557Z,13.60
2022-11-27T21:08:35.894Z,13.37
2022-11-27T21:11:18.396Z,13.40
2022-11-27T21:13:45.333Z,14.07
2022-11-27T21:16:14.177Z,13.20
2022-11-27T21:18:41.197Z,13.63
2022-11-27T21:21:12.137Z,13.63
2022-11-27T21:23:40.273Z,13.60
2022-11-27T21:26:08.719Z,14.13
2022-11-27T21:28:35.567Z,13.73
2022-11-27T21:31:20.342Z,13.90
2022-11-27T21:33:51.574Z,14.03
2022-11-27T21:36:19.984Z,14.60
2022-11-27T21:38:47.023Z,15.90
2022-11-27T21:41:14.405Z,15.87
2022-11-27T21:43:41.753Z,15.80
2022-11-27T21:46:17.449Z,15.07
2022-11-27T21:48:45.411Z,14.20
2022-11-27T21:51:15.182Z,14.93
2022-11-27T21:53:45.586Z,14.23
2022-11-27T21:56:15.599Z,14.40
2022-11-27T21:58:42.798Z,14.03
2022-11-27T22:01:15.352Z,14.37
2022-11-27T22:03:45.020Z,14.60
2022-11-27T22:06:15.282Z,13.60
2022-11-27T22:08:44.002Z,14.03
2022-11-27T22:11:14.382Z,14.20
2022-11-27T22:13:42.575Z,15.23
2022-11-27T22:16:15.687Z,15.50
2022-11-27T22:18:43.264Z,14.87
2022-11-27T22:21:11.111Z,15.03
2022-11-27T22:23:38.720Z,14.50
2022-11-27T22:26:07.532Z,13.87
2022-11-27T22:28:38.237Z,13.87
2022-11-27T22:31:12.518Z,14.63
2022-11-27T22:33:41.274Z,14.27
2022-11-27T22:36:18.638Z,14.50
2022-11-27T22:38:47.697Z,14.07
2022-11-27T22:41:16.081Z,13.87
2022-11-27T22:43:43.509Z,13.43
2022-11-27T22:46:13.353Z,13.90
2022-11-27T22:48:40.246Z,14.80
2022-11-27T22:51:07.662Z,14.00
2022-11-27T22:53:34.963Z,14.37
2022-11-27T22:56:10.664Z,14.73
2022-11-27T22:58:41.410Z,14.77
2022-11-27T23:01:21.604Z,15.57
2022-11-27T23:03:48.787Z,15.97
2022-11-27T23:06:18.273Z,16.43
2022-11-27T23:08:46.213Z,16.23
2022-11-27T23:11:22.004Z,15.73
2022-11-27T23:13:50.032Z,15.90
2022-11-27T23:16:17.900Z,16.10
2022-11-27T23:18:44.718Z,15.30
2022-11-27T23:21:14.628Z,14.90
2022-11-27T23:23:42.221Z,16.93
2022-11-27T23:26:18.156Z,16.30
2022-11-27T23:28:46.394Z,14.90
2022-11-27T23:31:32.235Z,16.40
2022-11-27T23:34:04.494Z,15.10
2022-11-27T23:36:32.325Z,14.60
2022-11-27T23:39:04.556Z,15.93
2022-11-27T23:41:31.925Z,15.80
2022-11-27T23:43:59.249Z,15.03
2022-11-27T23:46:28.742Z,16.47
2022-11-27T23:48:57.313Z,16.00
2022-11-27T23:51:26.742Z,15.43
2022-11-27T23:53:53.907Z,15.60
2022-11-27T23:56:24.737Z,15.50
2022-11-27T23:58:51.890Z,15.30
